Time;durP1;ratioP1;P1;durP2;ratioP2;P2;SDS_P1;SDS_P2;PMS_P1;PMS_P2;Temp;Humidity;BMP_temperature;BMP_pressure;BME280_temperature;BME280_humidity;BME280_pressure;Samples;Min_cycle;Max_cycle;Signal;HPM_P1;HPM_P2
2021/09/28 14:43:01;;;;;;;4.93;4.53;;;;;;;;;;5067036;28;20379;-85
2021/09/28 14:45:30;;;;;;;6.20;5.55;;;;;;;;;;5047662;28;20053;-85
2021/09/28 14:47:59;;;;;;;8.13;5.68;;;;;;;;;;5027669;28;20058;-86
2021/09/28 14:50:29;;;;;;;6.68;5.00;;;;;;;;;;5024308;28;20048;-83
2021/09/28 14:53:00;;;;;;;8.60;4.30;;;;;;;;;;5025515;28;20049;-91
2021/09/28 14:55:30;;;;;;;4.97;4.57;;;;;;;;;;5025824;28;20049;-89
2021/09/28 14:58:02;;;;;;;4.53;3.88;;;;;;;;;;5023339;28;20041;-89
2021/09/28 15:00:35;;;;;;;4.68;4.20;;;;;;;;;;5028981;28;20049;-90
2021/09/28 15:03:04;;;;;;;3.80;3.40;;;;;;;;;;5026148;28;20054;-89
2021/09/28 15:05:34;;;;;;;4.28;3.65;;;;;;;;;;4990253;28;20048;-90
2021/09/28 15:08:04;;;;;;;4.88;4.47;;;;;;;;;;5008693;28;20046;-90
2021/09/28 15:10:35;;;;;;;4.93;4.47;;;;;;;;;;4991020;28;20395;-88
2021/09/28 15:13:04;;;;;;;4.40;4.00;;;;;;;;;;5006012;28;20049;-90
2021/09/28 15:15:35;;;;;;;4.72;4.30;;;;;;;;;;4990779;28;20050;-87
2021/09/28 15:18:04;;;;;;;4.65;4.22;;;;;;;;;;5010838;28;20068;-89
2021/09/28 15:20:34;;;;;;;6.38;4.57;;;;;;;;;;5007158;28;20049;-88
2021/09/28 15:23:04;;;;;;;4.22;3.75;;;;;;;;;;5009615;28;20049;-85
2021/09/28 15:25:53;;;;;;;6.63;4.53;;;;;;;;;;5012589;28;20076;-88
2021/09/28 15:28:22;;;;;;;5.25;4.72;;;;;;;;;;5010129;28;20398;-90
2021/09/28 15:30:51;;;;;;;4.07;3.78;;;;;;;;;;5010489;28;20084;-92
2021/09/28 15:33:19;;;;;;;6.15;4.00;;;;;;;;;;4992742;28;20045;-91
2021/09/28 15:35:51;;;;;;;4.95;4.35;;;;;;;;;;5025943;28;20045;-89
2021/09/28 15:38:38;;;;;;;4.72;3.53;;;;;;;;;;5009413;28;20041;-86
2021/09/28 15:41:06;;;;;;;7.03;5.05;;;;;;;;;;5023655;28;20050;-87
2021/09/28 15:43:35;;;;;;;5.65;4.47;;;;;;;;;;5025421;28;20057;-87
2021/09/28 15:46:04;;;;;;;6.80;5.10;;;;;;;;;;4999546;28;20522;-83
2021/09/28 15:48:33;;;;;;;6.07;5.47;;;;;;;;;;5006343;28;20514;-87
2021/09/28 15:51:03;;;;;;;5.03;4.20;;;;;;;;;;5016070;28;20406;-89
2021/09/28 15:53:33;;;;;;;5.80;4.57;;;;;;;;;;4999394;28;20388;-90
2021/09/28 15:56:01;;;;;;;6.53;5.90;;;;;;;;;;4978650;28;20050;-89
2021/09/28 15:58:29;;;;;;;7.18;5.55;;;;;;;;;;4992375;28;20051;-88
2021/09/28 16:00:58;;;;;;;4.80;4.07;;;;;;;;;;4976084;28;20500;-89
2021/09/28 16:03:27;;;;;;;7.53;5.70;;;;;;;;;;4996106;28;20037;-90
2021/09/28 16:05:58;;;;;;;10.68;6.53;;;;;;;;;;4994876;28;20054;-89
2021/09/28 16:08:27;;;;;;;8.45;5.93;;;;;;;;;;4995421;28;20042;-89
2021/09/28 16:10:55;;;;;;;6.85;6.15;;;;;;;;;;4997400;28;20061;-88
2021/09/28 16:13:24;;;;;;;7.35;5.55;;;;;;;;;;4979534;28;20058;-87
2021/09/28 16:15:52;;;;;;;4.95;4.45;;;;;;;;;;4995858;28;20054;-87
2021/09/28 16:18:21;;;;;;;7.60;5.10;;;;;;;;;;4979262;28;20407;-87
2021/09/28 16:20:49;;;;;;;6.10;5.28;;;;;;;;;;4977252;28;20057;-89
2021/09/28 16:23:17;;;;;;;8.10;6.22;;;;;;;;;;4970987;28;20057;-88
2021/09/28 16:25:45;;;;;;;6.75;5.13;;;;;;;;;;5010377;28;20391;-89
2021/09/28 16:28:13;;;;;;;10.52;5.85;;;;;;;;;;4977358;28;20043;-89
2021/09/28 16:30:41;;;;;;;7.20;4.90;;;;;;;;;;4978994;28;20391;-90
2021/09/28 16:33:09;;;;;;;9.82;5.13;;;;;;;;;;4994872;28;20046;-91
2021/09/28 16:35:38;;;;;;;8.38;6.78;;;;;;;;;;4995342;28;20058;-90
2021/09/28 16:38:08;;;;;;;6.07;4.93;;;;;;;;;;4985405;28;20049;-87
2021/09/28 16:40:37;;;;;;;8.25;5.50;;;;;;;;;;5009198;28;20046;-87
2021/09/28 16:43:05;;;;;;;7.00;4.85;;;;;;;;;;5011271;28;20057;-91
2021/09/28 16:45:36;;;;;;;6.28;4.50;;;;;;;;;;4994269;28;20056;-89
2021/09/28 16:48:04;;;;;;;9.40;5.63;;;;;;;;;;5012360;28;20054;-89
2021/09/28 16:50:33;;;;;;;8.30;5.45;;;;;;;;;;4977780;28;20054;-88
2021/09/28 16:53:01;;;;;;;5.43;4.68;;;;;;;;;;4982981;28;20054;-89
2021/09/28 16:55:29;;;;;;;7.00;5.75;;;;;;;;;;5008811;28;20057;-90
2021/09/28 16:57:57;;;;;;;8.15;6.65;;;;;;;;;;5009700;28;20056;-91
2021/09/28 17:00:31;;;;;;;6.85;5.57;;;;;;;;;;5009756;28;20057;-86
2021/09/28 17:03:00;;;;;;;9.88;6.38;;;;;;;;;;4978055;28;20073;-90
2021/09/28 17:05:28;;;;;;;13.18;5.28;;;;;;;;;;4967628;28;20038;-87
2021/09/28 17:07:57;;;;;;;8.98;6.53;;;;;;;;;;5006313;28;20049;-85
2021/09/28 17:10:24;;;;;;;6.72;5.35;;;;;;;;;;4996952;28;20035;-89
2021/09/28 17:12:53;;;;;;;7.95;4.90;;;;;;;;;;4991193;28;20061;-92
2021/09/28 17:15:21;;;;;;;8.38;6.57;;;;;;;;;;4990941;28;20063;-87
2021/09/28 17:17:49;;;;;;;6.28;4.38;;;;;;;;;;5007333;28;20069;-86
2021/09/28 17:20:21;;;;;;;8.02;5.90;;;;;;;;;;4994385;28;20053;-89
2021/09/28 17:22:50;;;;;;;6.90;6.25;;;;;;;;;;5010014;28;20046;-88
2021/09/28 17:25:19;;;;;;;7.47;6.00;;;;;;;;;;5002647;28;20038;-88
2021/09/28 17:27:47;;;;;;;6.13;4.78;;;;;;;;;;5009939;28;20045;-87
2021/09/28 17:30:16;;;;;;;8.32;6.72;;;;;;;;;;5010902;28;20038;-86
2021/09/28 17:32:44;;;;;;;11.15;6.95;;;;;;;;;;5009290;28;20054;-86
2021/09/28 17:35:13;;;;;;;7.13;5.28;;;;;;;;;;5011008;28;20046;-85
2021/09/28 17:37:45;;;;;;;7.72;6.07;;;;;;;;;;5009926;28;20057;-89
2021/09/28 17:40:16;;;;;;;11.00;6.82;;;;;;;;;;5010254;28;20054;-86
2021/09/28 17:42:44;;;;;;;9.35;6.18;;;;;;;;;;5010367;28;20506;-87
2021/09/28 17:45:13;;;;;;;6.80;6.10;;;;;;;;;;4993749;28;20407;-88
2021/09/28 17:47:46;;;;;;;6.95;6.25;;;;;;;;;;5011387;28;20057;-87
2021/09/28 17:50:15;;;;;;;6.25;5.55;;;;;;;;;;5018168;28;20061;-85
2021/09/28 17:52:45;;;;;;;6.82;5.95;;;;;;;;;;5006917;28;20480;-89
2021/09/28 17:55:25;;;;;;;10.18;6.97;;;;;;;;;;5008199;28;20050;-89
2021/09/28 17:57:53;;;;;;;9.15;7.07;;;;;;;;;;4998229;28;20046;-91
2021/09/28 18:00:23;;;;;;;8.38;6.93;;;;;;;;;;4991614;28;20046;-89
2021/09/28 18:02:53;;;;;;;10.35;6.68;;;;;;;;;;4990544;28;20065;-86
2021/09/28 18:05:27;;;;;;;11.98;6.63;;;;;;;;;;5008036;28;20042;-85
2021/09/28 18:07:55;;;;;;;12.30;7.47;;;;;;;;;;5008387;28;20046;-86
2021/09/28 18:10:23;;;;;;;9.50;8.27;;;;;;;;;;5008731;28;20046;-86
2021/09/28 18:12:51;;;;;;;7.43;6.55;;;;;;;;;;4991636;28;20069;-85
2021/09/28 18:15:20;;;;;;;11.15;8.48;;;;;;;;;;5009371;28;20069;-86
2021/09/28 18:17:49;;;;;;;8.63;6.40;;;;;;;;;;4993129;28;20490;-86
2021/09/28 18:20:21;;;;;;;8.50;7.07;;;;;;;;;;5009942;28;20502;-86
2021/09/28 18:22:51;;;;;;;8.52;7.20;;;;;;;;;;5003658;28;20049;-86
2021/09/28 18:25:20;;;;;;;10.57;7.57;;;;;;;;;;4994550;28;20037;-85
2021/09/28 18:27:53;;;;;;;7.43;6.65;;;;;;;;;;5003017;28;20046;-85
2021/09/28 18:30:22;;;;;;;11.90;9.55;;;;;;;;;;5008985;28;20078;-85
2021/09/28 18:32:52;;;;;;;9.43;7.57;;;;;;;;;;4992967;28;20483;-85
2021/09/28 18:35:21;;;;;;;13.95;7.72;;;;;;;;;;5010129;28;20057;-86
2021/09/28 18:37:50;;;;;;;10.43;7.50;;;;;;;;;;5008681;28;20042;-82
2021/09/28 18:42:54;;;;;;;;;;;;;;;;;;5006424;28;20054;-82
2021/09/28 18:45:22;;;;;;;9.38;7.78;;;;;;;;;;4991526;28;20317;-82
2021/09/28 18:47:50;;;;;;;8.95;8.05;;;;;;;;;;4972542;28;20050;-82
2021/09/28 18:50:19;;;;;;;8.32;6.40;;;;;;;;;;4971978;28;20070;-82
2021/09/28 18:52:47;;;;;;;8.85;6.57;;;;;;;;;;4970687;28;20046;-82
2021/09/28 18:55:23;;;;;;;8.23;6.85;;;;;;;;;;4972176;28;20066;-82
2021/09/28 18:57:57;;;;;;;11.00;6.55;;;;;;;;;;4971760;28;20062;-84
2021/09/28 19:00:29;;;;;;;6.80;6.10;;;;;;;;;;4971265;28;20046;-86
2021/09/28 19:03:01;;;;;;;8.38;7.43;;;;;;;;;;4970618;28;20051;-86
2021/09/28 19:05:38;;;;;;;9.23;7.20;;;;;;;;;;4962811;28;20047;-85
2021/09/28 19:08:09;;;;;;;10.63;6.57;;;;;;;;;;4990084;28;20054;-86
2021/09/28 19:10:41;;;;;;;10.27;7.60;;;;;;;;;;4975284;28;20499;-86
2021/09/28 19:13:09;;;;;;;11.57;9.48;;;;;;;;;;4992977;28;20046;-86
2021/09/28 19:15:39;;;;;;;7.80;5.93;;;;;;;;;;5006336;28;20052;-86
2021/09/28 19:18:08;;;;;;;7.60;6.38;;;;;;;;;;4997708;28;20057;-86
2021/09/28 19:20:47;;;;;;;7.28;5.65;;;;;;;;;;4997388;28;20065;-86
2021/09/28 19:23:16;;;;;;;9.23;6.82;;;;;;;;;;4998030;28;20058;-85
2021/09/28 19:25:45;;;;;;;6.57;5.43;;;;;;;;;;4990463;28;20051;-86
2021/09/28 19:28:13;;;;;;;6.80;6.03;;;;;;;;;;4992270;28;20046;-86
2021/09/28 19:30:44;;;;;;;8.32;6.90;;;;;;;;;;4994341;28;20039;-86
2021/09/28 19:33:12;;;;;;;9.38;6.60;;;;;;;;;;4993110;28;20046;-85
2021/09/28 19:35:40;;;;;;;7.82;6.07;;;;;;;;;;5010038;28;20056;-85
2021/09/28 19:38:11;;;;;;;7.13;5.85;;;;;;;;;;5012380;28;20046;-86
2021/09/28 19:40:47;;;;;;;8.20;7.28;;;;;;;;;;4995866;28;20054;-85
2021/09/28 19:43:24;;;;;;;7.75;6.32;;;;;;;;;;5014093;28;20046;-86
2021/09/28 19:45:55;;;;;;;7.75;6.95;;;;;;;;;;5013871;28;20058;-86
2021/09/28 19:48:26;;;;;;;7.38;6.60;;;;;;;;;;5010993;28;20045;-86
2021/09/28 19:50:57;;;;;;;9.10;6.80;;;;;;;;;;5006451;28;20054;-85
2021/09/28 19:53:28;;;;;;;7.85;6.93;;;;;;;;;;4999338;28;20038;-86
2021/09/28 20:06:48;;;;;;;11.18;7.95;;;;;;;;;;5011621;28;20061;-83
2021/09/28 20:37:02;;;;;;;10.63;5.90;;;;;;;;;;5012374;28;20403;-82
2021/09/28 20:39:31;;;;;;;9.43;6.78;;;;;;;;;;5012797;28;20048;-82
2021/09/28 20:41:59;;;;;;;9.20;6.28;;;;;;;;;;5011349;28;20058;-82
2021/09/28 20:44:27;;;;;;;17.48;7.22;;;;;;;;;;5011384;28;20060;-82
2021/09/28 20:46:59;;;;;;;10.50;7.85;;;;;;;;;;5011858;28;20050;-82
2021/09/28 20:49:28;;;;;;;11.00;6.20;;;;;;;;;;4994748;28;20049;-90
2021/09/28 20:51:59;;;;;;;9.73;7.68;;;;;;;;;;4994767;28;20041;-82
2021/09/28 20:54:28;;;;;;;8.45;7.63;;;;;;;;;;5010760;28;20514;-82
2021/09/28 20:56:56;;;;;;;7.55;6.85;;;;;;;;;;5011946;28;20049;-82
2021/09/28 20:59:25;;;;;;;9.35;6.82;;;;;;;;;;5011148;28;20041;-82
2021/09/28 21:01:54;;;;;;;11.88;7.53;;;;;;;;;;5011916;28;20050;-80
2021/09/28 21:04:22;;;;;;;9.85;6.75;;;;;;;;;;5007307;28;20054;-80
2021/09/28 21:06:51;;;;;;;8.70;7.20;;;;;;;;;;5007675;28;20049;-80
2021/09/28 21:09:19;;;;;;;10.55;6.63;;;;;;;;;;5009622;28;20049;-80
2021/09/28 21:11:47;;;;;;;10.57;6.80;;;;;;;;;;5009037;28;20045;-80
2021/09/28 21:14:15;;;;;;;9.98;6.25;;;;;;;;;;5003807;28;20510;-80
2021/09/28 21:16:43;;;;;;;11.27;7.53;;;;;;;;;;5002964;28;20546;-80
2021/09/28 21:19:12;;;;;;;7.95;6.10;;;;;;;;;;5006649;28;20038;-80
2021/09/28 21:21:40;;;;;;;9.90;6.70;;;;;;;;;;4992094;28;20484;-81
2021/09/28 21:24:07;;;;;;;10.23;7.40;;;;;;;;;;4993098;28;20061;-81
2021/09/28 21:26:36;;;;;;;10.85;8.07;;;;;;;;;;4992614;28;20403;-81
2021/09/28 21:29:03;;;;;;;10.13;8.07;;;;;;;;;;4992582;28;20484;-81
2021/09/28 21:31:44;;;;;;;9.00;7.00;;;;;;;;;;4991598;28;20065;-81
2021/09/28 21:34:13;;;;;;;7.07;5.90;;;;;;;;;;4992684;28;20042;-81
2021/09/28 21:36:56;;;;;;;10.98;7.32;;;;;;;;;;4990835;28;20050;-81
2021/09/28 21:39:28;;;;;;;11.57;8.52;;;;;;;;;;4992789;28;20056;-81
2021/09/28 21:41:57;;;;;;;11.23;7.30;;;;;;;;;;4992223;28;20400;-81
2021/09/28 21:44:25;;;;;;;11.20;8.77;;;;;;;;;;4993396;28;20053;-80
2021/09/28 21:46:53;;;;;;;10.98;9.52;;;;;;;;;;5012530;28;20470;-81
2021/09/28 21:49:21;;;;;;;16.08;7.28;;;;;;;;;;5012195;28;20050;-81
2021/09/28 21:51:49;;;;;;;9.85;7.65;;;;;;;;;;5011517;28;20088;-80
2021/09/28 21:54:18;;;;;;;8.30;7.07;;;;;;;;;;5010736;28;20046;-81
2021/09/28 21:56:46;;;;;;;10.05;7.63;;;;;;;;;;5010483;28;20399;-81
2021/09/28 21:59:14;;;;;;;11.30;8.52;;;;;;;;;;5012495;28;20053;-81
2021/09/28 22:01:42;;;;;;;14.30;7.97;;;;;;;;;;5011846;28;20042;-81
2021/09/28 22:04:10;;;;;;;14.38;7.97;;;;;;;;;;5012453;28;20057;-81
2021/09/28 22:06:39;;;;;;;10.90;7.93;;;;;;;;;;5011499;28;20505;-81
2021/09/28 22:09:07;;;;;;;12.07;8.68;;;;;;;;;;5011656;28;20045;-81
2021/09/28 22:11:38;;;;;;;10.30;9.25;;;;;;;;;;5011846;28;20053;-81
2021/09/28 22:14:07;;;;;;;11.82;7.97;;;;;;;;;;5011750;28;20065;-81
2021/09/28 22:16:35;;;;;;;13.93;8.85;;;;;;;;;;4974751;28;20051;-81
2021/09/28 22:19:04;;;;;;;10.10;7.40;;;;;;;;;;4992325;28;20054;-81
2021/09/28 22:21:33;;;;;;;10.55;6.65;;;;;;;;;;4990306;28;20043;-81
2021/09/28 22:24:02;;;;;;;9.68;7.43;;;;;;;;;;4990532;28;20054;-81
2021/09/28 22:26:30;;;;;;;10.85;8.35;;;;;;;;;;4991515;28;20050;-81
2021/09/28 22:28:59;;;;;;;11.02;6.95;;;;;;;;;;4991731;28;20049;-81
2021/09/28 22:31:28;;;;;;;8.18;7.00;;;;;;;;;;4990706;28;20042;-81
2021/09/28 22:33:56;;;;;;;8.85;7.30;;;;;;;;;;4991777;28;20047;-81
2021/09/28 22:36:24;;;;;;;12.27;7.82;;;;;;;;;;4990401;28;20046;-80
2021/09/28 22:38:52;;;;;;;20.63;8.02;;;;;;;;;;4992163;28;20054;-81
2021/09/28 22:41:20;;;;;;;11.57;7.25;;;;;;;;;;5006598;28;20503;-81
2021/09/28 22:43:48;;;;;;;9.60;7.85;;;;;;;;;;5000305;28;20057;-81
2021/09/28 22:46:17;;;;;;;10.40;7.68;;;;;;;;;;5002829;28;20039;-81
2021/09/28 22:48:45;;;;;;;15.20;10.07;;;;;;;;;;5001164;28;20053;-81
2021/09/28 22:51:13;;;;;;;10.63;7.85;;;;;;;;;;5011551;28;20042;-81
2021/09/28 22:53:41;;;;;;;9.18;6.45;;;;;;;;;;5011200;28;20046;-81
2021/09/28 22:56:17;;;;;;;9.20;7.75;;;;;;;;;;5011379;28;20054;-81
2021/09/28 22:58:49;;;;;;;10.50;8.32;;;;;;;;;;5011346;28;20403;-81
2021/09/28 23:01:19;;;;;;;12.50;8.57;;;;;;;;;;5009548;28;20050;-80
2021/09/28 23:03:50;;;;;;;13.07;9.27;;;;;;;;;;5012325;28;20050;-81
2021/09/28 23:06:18;;;;;;;;;;;;;;;;;;5015204;28;20046;-81
2021/09/28 23:08:46;;;;;;;12.95;8.18;;;;;;;;;;5015074;28;19932;-80
2021/09/28 23:11:14;;;;;;;20.20;8.75;;;;;;;;;;5015127;28;20054;-81
2021/09/28 23:13:42;;;;;;;8.13;7.30;;;;;;;;;;5014996;28;20046;-80
2021/09/28 23:16:10;;;;;;;11.20;7.78;;;;;;;;;;5015265;28;20049;-82
2021/09/28 23:18:38;;;;;;;15.43;7.88;;;;;;;;;;5014839;28;20054;-82
2021/09/28 23:21:06;;;;;;;14.95;8.07;;;;;;;;;;5014582;28;20050;-82
2021/09/28 23:23:35;;;;;;;9.30;6.75;;;;;;;;;;5014899;28;20399;-82
2021/09/28 23:26:03;;;;;;;10.02;8.23;;;;;;;;;;5014361;28;20522;-82
2021/09/28 23:28:31;;;;;;;10.32;8.32;;;;;;;;;;5014524;28;20049;-81
2021/09/28 23:30:59;;;;;;;10.35;8.88;;;;;;;;;;5015165;28;20056;-82
2021/09/28 23:33:27;;;;;;;11.00;8.32;;;;;;;;;;5014755;28;20045;-81
2021/09/28 23:35:55;;;;;;;12.80;7.97;;;;;;;;;;5014525;28;20050;-82
2021/09/28 23:38:23;;;;;;;11.93;7.05;;;;;;;;;;5013646;28;20050;-82
2021/09/28 23:40:51;;;;;;;9.82;7.75;;;;;;;;;;5014102;28;20038;-81
2021/09/28 23:43:19;;;;;;;10.45;7.78;;;;;;;;;;5014912;28;20050;-82
2021/09/28 23:45:49;;;;;;;9.85;7.28;;;;;;;;;;5012904;28;20072;-81
2021/09/28 23:48:19;;;;;;;12.00;7.13;;;;;;;;;;5014755;28;20054;-82
2021/09/28 23:50:48;;;;;;;9.80;7.45;;;;;;;;;;5013908;28;20392;-82
2021/09/28 23:53:16;;;;;;;12.43;7.18;;;;;;;;;;5014017;28;20050;-82
2021/09/28 23:55:44;;;;;;;10.10;7.47;;;;;;;;;;4996578;28;20060;-82
2021/09/28 23:58:12;;;;;;;15.32;8.25;;;;;;;;;;5012862;28;20057;-81
